x

Pensacola - 115nm Ese Of Pensacola, Fl (42039) Wave Buoy

1:50am - Sat 29th Aug 2015 All times are CDT. -5 hours from GMT.

  • Sig Wave height 3.0ft
  • Swell Direction
  • Peak Period 5s
  • Average Period 4s
  • Wind
    9mph, 11mph gusts
  • Sea Temp 86°f
  • Air Temp 84°f
  • Sea Pressure 1016.7mb
  • Pensacola - 115nm Ese Of Pensacola, Fl
  • Pensacola - 115nm Ese Of Pensacola, Fl

More Historic Weather Station data

Upgrade to MSW Pro to gain access to the past 30 days of data for over 8000 Wavebouys and Weather Stations around the globe.

Join Pro

Comparision Forecast

View Surf forecast
   
Sat 08/29 1:50am 3ft 5s 4s 9 11 mph 1016.7mb 86f 84f
12:50am 3ft 6s 5s 11 13 mph 1017.6mb 86f 85f
Fri 08/28 11:50pm 3ft 5s 4s 13 16 mph 1017.4mb 86f 85f
10:50pm 2.5ft 5s 4s 13 16 mph 1017mb 86f 85f
9:50pm 2.5ft 4s 4s 16 18 mph 1017mb 86f 85f
8:50pm 2ft 4s 3s 18 20 mph 1016.9mb 86f 84f
7:50pm 1ft 4s 3s 16 18 mph 1015.7mb 86f 85f
6:50pm 1ft 4s 4s 7 11 mph 1015.3mb 86f 84f
5:50pm 1ft 4s 4s 9 13 mph 1015.1mb 87f 84f
4:50pm 1ft 4s 4s 4 7 mph 1014.9mb 87f 84f
3:50pm 1.3ft 4s 4s  -  2 mph 1014.9mb 88f 84f
2:50pm 1ft 4s 3s 4 9 mph 1015.3mb 89f 84f
1:50pm 1ft 4s 3s  -  2 mph 1015.8mb 88f 85f
12:50pm 1ft 3s 3s  -  2 mph 1015.8mb 87f 85f
11:50am 1.3ft 4s 3s 2 4 mph 1016.3mb 87f 84f
10:50am 1.3ft 4s 3s 2 4 mph 1016.6mb 86f 84f
9:50am 1.3ft 3s 3s  -  2 mph 1016.2mb 86f 85f
8:50am 1ft 3s 3s 2 4 mph 1015.6mb 85f 84f
7:50am 1ft 2s 3s 7 11 mph 1015.3mb 85f 84f
6:50am 1ft 4s 3s 9 11 mph 1014.6mb 85f 84f
5:50am 1ft 3s 3s 9
mph
1013.9mb 85f 83f
4:50am 1ft 3s 3s 7 9 mph 1013.2mb 85f 83f
3:50am 1ft 4s 3s 9 11 mph 1013mb 85f 83f
2:50am 1ft 4s 3s 7 9 mph 1013.3mb 85f 83f
1:50am 1ft 4s 3s 7 9 mph 1014.3mb 85f 82f
12:50am 1ft 4s 3s 9 11 mph 1014.9mb 86f 83f
Thu 08/27 11:50pm 1.3ft 4s 3s 7 11 mph 1015.1mb 86f 83f
10:50pm 1.3ft 4s 4s 9 11 mph 1015.2mb 86f 83f
9:50pm 1.3ft 4s 4s 9 11 mph 1014.9mb 86f 83f
8:50pm 1.3ft 4s 4s 9 11 mph 1014.4mb 86f 83f
7:50pm 1.3ft 4s 4s 9 11 mph 1014mb 86f 83f
6:50pm 1.3ft 4s 4s 7 9 mph 1013.5mb 86f 83f
5:50pm 1.3ft 4s 4s 7 9 mph 1013.5mb 87f 83f
4:50pm 1.3ft 4s 4s 7 9 mph 1013.5mb 87f 83f
3:50pm 1.3ft 4s 4s 7 9 mph 1013.1mb 87f 83f
2:50pm 1.3ft 4s 3s 9
mph
1013.6mb 86f 82f
1:50pm 1.3ft 5s 4s 9 11 mph 1014.4mb 86f 82f
12:50pm 1.6ft 5s 3s 11 13 mph 1014.8mb 86f 82f
11:50am 1.6ft 5s 4s 11 13 mph 1014.9mb 86f 82f
10:50am 2ft 5s 4s 9 11 mph 1015mb 86f 82f
9:50am 2ft 5s 4s 11 13 mph 1014.7mb 86f 82f
8:50am 2ft 5s 4s 9 13 mph 1014mb 86f 82f
7:50am 1.6ft 5s 4s 7 11 mph 1013.9mb 86f 82f
6:50am 1.6ft 4s 4s 4 7 mph 1013.7mb 86f 82f
5:50am 1.6ft 4s 4s 7 9 mph 1012.9mb 86f 82f
4:50am 1.6ft 4s 3s 4 7 mph 1012.8mb 86f 82f
3:50am 1.6ft 4s 3s 4 7 mph 1012.8mb 86f 82f
2:50am 1.6ft 4s 3s 4
mph
1013mb 86f 82f
1:50am 2ft 4s 4s 7 9 mph 1013.7mb 86f 83f
12:50am 2ft 4s 3s 9 11 mph 1014.4mb 86f 83f
Wed 08/26 11:50pm 2ft 4s 3s 11 16 mph 1014.8mb 86f 83f
10:50pm 2.5ft 4s 4s 13 18 mph 1014.8mb 86f 83f
9:50pm 2.5ft 4s 3s 16 18 mph 1014.6mb 87f 82f
8:50pm 2.5ft 4s 4s 16 20 mph 1014mb 87f 82f
7:50pm 2.5ft 5s 4s 16 20 mph 1013.2mb 87f 82f
6:50pm 2.5ft 5s 4s 16 18 mph 1013.2mb 87f 81f
5:50pm 2.5ft 5s 4s 16 20 mph 1013.4mb 87f 82f
4:50pm 2ft 5s 4s 13 18 mph 1013.5mb 87f 82f
3:50pm 2ft 5s 4s 11 16 mph 1013.9mb 87f 82f
2:50pm 2.5ft 5s 4s 11 13 mph 1014.6mb 87f 82f
1:50pm 2.5ft 5s 4s 7 9 mph 1015.2mb 87f 83f
12:50pm 2.5ft 5s 4s 7 9 mph 1015.7mb 87f 83f
11:50am 2.5ft 5s 4s 9 11 mph 1015.8mb 87f 82f
10:50am 2.5ft 6s 4s 11 13 mph 1015.8mb 86f 82f
9:50am 3.5ft 6s 4s 13 16 mph 1015.4mb 86f 83f
8:50am 3.5ft 5s 4s 13 18 mph 1014.8mb 87f 82f
7:50am 3.5ft 6s 4s 16 18 mph 1014.3mb 87f 83f
6:50am 4ft 5s 4s 16 18 mph 1013.7mb 87f 83f
5:50am 3.5ft 5s 4s 16 18 mph 1013.1mb 87f 83f
4:50am 3.5ft 5s 4s 16 18 mph 1013mb 87f 83f
3:50am 2.5ft 5s 4s 16 20 mph 1013.1mb 87f 84f
2:50am 2.5ft 4s 3s 18 20 mph 1012.7mb 87f 85f
1:50am 1.3ft 4s 3s 18 20 mph 1012.7mb 87f 85f
12:50am 1.3ft 4s 3s 7 9 mph 1013.4mb 87f 86f
Tue 08/25 11:50pm 1.3ft 4s 3s 9 11 mph 1014mb 87f 86f
10:50pm 1.3ft 3s 3s 9 11 mph 1014.4mb 87f 85f
9:50pm 1.3ft 3s 3s 11 13 mph 1014.2mb 87f 85f
8:50pm 1.3ft 4s 3s 11 13 mph 1013.3mb 87f 85f
7:50pm 1.3ft 4s 3s 11 13 mph 1012.6mb 87f 85f
6:50pm 1.3ft 5s 3s 11 13 mph 1012.4mb 88f 85f
5:50pm 1.6ft 3s 3s 13 16 mph 1012.5mb 88f 85f
4:50pm 1.3ft 5s 4s 13 16 mph 1012.5mb 88f 85f
3:50pm 1.3ft 5s 4s 13 18 mph 1012.6mb 89f 86f
2:50pm 1.3ft 5s 4s 11 13 mph 1013.1mb 89f 86f
1:50pm 1.6ft 5s 4s 7 9 mph 1013.5mb 89f 86f
12:50pm 1.3ft 4s 4s 7 9 mph 1014mb 89f 86f
11:50am 1.6ft 4s 4s 7
mph
1014.4mb 89f 86f
10:50am 1.6ft 4s 4s 7
mph
1014.9mb 89f 87f
9:50am 1.6ft 4s 3s 4
mph
1014.7mb 88f 88f
8:50am 1.3ft 4s 3s 4 7 mph 1014.5mb 87f 87f
7:50am 1.3ft 4s 3s 7
mph
1014.3mb 87f 87f